createdAt,value
2019-01-09T00:01:00.170Z,5.20
2019-01-09T00:03:27.390Z,5.20
2019-01-09T00:05:54.604Z,5.20
2019-01-09T00:08:21.868Z,5.10
2019-01-09T00:10:49.183Z,5.20
2019-01-09T00:13:17.466Z,5.20
2019-01-09T00:15:44.699Z,5.20
2019-01-09T00:18:11.902Z,5.20
2019-01-09T00:20:39.138Z,5.20
2019-01-09T00:23:06.351Z,5.30
2019-01-09T00:25:33.927Z,5.30
2019-01-09T00:28:01.143Z,5.20
2019-01-09T00:30:28.368Z,5.20
2019-01-09T00:32:55.711Z,5.20
2019-01-09T00:35:22.950Z,5.10
2019-01-09T00:37:50.190Z,5.20
2019-01-09T00:40:17.519Z,5.20
2019-01-09T00:42:44.771Z,5.10
2019-01-09T00:45:12.204Z,5.20
2019-01-09T00:47:39.531Z,5.10
2019-01-09T00:50:08.447Z,5.00
2019-01-09T00:52:36.735Z,5.00
2019-01-09T00:55:04.216Z,5.00
2019-01-09T00:57:31.500Z,5.10
2019-01-09T00:59:58.750Z,5.10
2019-01-09T01:03:23.259Z,5.00
2019-01-09T01:06:34.127Z,5.00
2019-01-09T01:09:26.241Z,5.00
2019-01-09T01:12:56.719Z,5.00
2019-01-09T01:16:10.550Z,5.00
2019-01-09T01:19:18.444Z,4.90
2019-01-09T01:21:51.203Z,5.00
2019-01-09T01:25:06.585Z,5.10
2019-01-09T01:28:11.854Z,4.90
2019-01-09T01:31:18.582Z,5.00
2019-01-09T01:34:17.754Z,5.00
2019-01-09T01:37:22.219Z,5.00
2019-01-09T01:40:37.232Z,5.20
2019-01-09T01:43:16.919Z,5.30
2019-01-09T01:46:25.120Z,5.10
2019-01-09T01:49:27.339Z,5.10
2019-01-09T01:52:13.392Z,5.10
2019-01-09T01:55:34.665Z,5.10
2019-01-09T01:58:34.227Z,5.10
2019-01-09T02:01:58.655Z,5.10
2019-01-09T02:05:03.779Z,5.00
2019-01-09T02:08:19.391Z,5.10
2019-01-09T02:11:21.939Z,5.10
2019-01-09T02:14:32.806Z,5.00
2019-01-09T02:17:24.847Z,5.00
2019-01-09T02:20:06.134Z,5.00
2019-01-09T02:22:52.765Z,5.00
2019-01-09T02:26:13.650Z,5.00
2019-01-09T02:29:25.651Z,5.10
2019-01-09T02:32:31.098Z,5.00
2019-01-09T02:34:58.341Z,5.00
2019-01-09T02:37:25.694Z,5.10
2019-01-09T02:39:52.945Z,5.00
2019-01-09T02:42:20.213Z,5.00
2019-01-09T02:44:47.449Z,5.00
2019-01-09T02:47:14.703Z,5.00
2019-01-09T02:49:41.961Z,5.00
2019-01-09T02:52:09.289Z,5.10
2019-01-09T02:54:46.404Z,5.10
2019-01-09T02:57:13.655Z,5.10
2019-01-09T02:59:40.881Z,5.10
2019-01-09T03:02:08.125Z,5.00
2019-01-09T03:04:35.375Z,5.10
2019-01-09T03:07:02.595Z,5.10
2019-01-09T03:09:29.832Z,5.00
2019-01-09T03:11:57.052Z,5.00
2019-01-09T03:14:24.332Z,5.20
2019-01-09T03:16:54.571Z,5.00
2019-01-09T03:19:21.812Z,4.90
2019-01-09T03:21:49.068Z,4.90
2019-01-09T03:24:16.328Z,4.90
2019-01-09T03:26:43.629Z,4.80
2019-01-09T03:29:10.884Z,5.00
2019-01-09T03:31:38.148Z,4.90
2019-01-09T03:34:05.383Z,4.80
2019-01-09T03:36:33.298Z,4.90
2019-01-09T03:39:00.593Z,4.80
2019-01-09T03:41:28.415Z,4.90
2019-01-09T03:43:55.689Z,4.80
2019-01-09T03:46:23.005Z,4.80
2019-01-09T03:48:50.235Z,4.70
2019-01-09T03:51:37.023Z,4.80
2019-01-09T03:54:04.240Z,4.70
2019-01-09T03:56:31.494Z,4.80
2019-01-09T03:58:58.814Z,4.80
2019-01-09T04:01:26.040Z,4.70
2019-01-09T04:03:53.285Z,4.50
2019-01-09T04:06:20.487Z,4.20
2019-01-09T04:08:47.699Z,3.60
2019-01-09T04:11:14.934Z,3.00
2019-01-09T04:13:42.154Z,2.90
2019-01-09T04:16:09.378Z,2.80
2019-01-09T04:18:36.636Z,2.70
2019-01-09T04:21:03.963Z,2.40
2019-01-09T04:23:31.180Z,2.50
2019-01-09T04:25:58.418Z,2.70
2019-01-09T04:28:25.635Z,2.70
2019-01-09T04:30:52.863Z,2.60
2019-01-09T04:33:20.121Z,2.70
2019-01-09T04:35:47.352Z,2.80
2019-01-09T04:38:14.576Z,2.80
2019-01-09T04:40:41.813Z,2.80
2019-01-09T04:43:09.034Z,2.80
2019-01-09T04:45:36.249Z,2.80
2019-01-09T04:48:03.480Z,2.70
2019-01-09T04:50:30.715Z,2.80
2019-01-09T04:52:57.964Z,2.80
2019-01-09T04:55:25.208Z,2.80
2019-01-09T04:57:52.423Z,2.60
2019-01-09T05:00:19.671Z,2.60
2019-01-09T05:02:46.887Z,2.60
2019-01-09T05:05:14.099Z,2.80
2019-01-09T05:07:41.402Z,2.70
2019-01-09T05:10:08.638Z,2.70
2019-01-09T05:12:35.847Z,2.70
2019-01-09T05:15:03.099Z,2.60
2019-01-09T05:17:30.355Z,2.70
2019-01-09T05:19:57.676Z,2.80
2019-01-09T05:22:25.067Z,2.80
2019-01-09T05:24:52.295Z,2.90
2019-01-09T05:27:19.511Z,2.90
2019-01-09T05:29:46.775Z,2.80
2019-01-09T05:32:13.994Z,2.90
2019-01-09T05:34:41.327Z,2.90
2019-01-09T05:37:09.682Z,2.90
2019-01-09T05:39:39.824Z,2.90
2019-01-09T05:42:06.343Z,2.90
2019-01-09T05:44:33.575Z,2.80
2019-01-09T05:47:00.796Z,2.80
2019-01-09T05:49:28.064Z,2.70
2019-01-09T05:51:55.290Z,2.90
2019-01-09T05:54:22.523Z,2.90
2019-01-09T05:56:49.775Z,2.90
2019-01-09T05:59:17.001Z,3.00
2019-01-09T06:01:44.219Z,3.00
2019-01-09T06:04:11.463Z,3.20
2019-01-09T06:06:38.680Z,3.10
2019-01-09T06:09:06.059Z,3.00
2019-01-09T06:11:33.297Z,3.20
2019-01-09T06:14:00.507Z,3.20
2019-01-09T06:16:27.742Z,3.20
2019-01-09T06:18:55.023Z,3.20
2019-01-09T06:21:22.248Z,3.20
2019-01-09T06:23:49.468Z,3.30
2019-01-09T06:26:16.702Z,3.20
2019-01-09T06:28:43.919Z,3.00
2019-01-09T06:31:11.140Z,3.10
2019-01-09T06:33:38.399Z,2.90
2019-01-09T06:36:05.653Z,3.00
2019-01-09T06:38:32.890Z,2.90
2019-01-09T06:41:00.131Z,3.00
2019-01-09T06:43:27.391Z,3.00
2019-01-09T06:45:54.614Z,2.90
2019-01-09T06:48:21.850Z,2.90
2019-01-09T06:50:49.210Z,3.00
2019-01-09T06:53:16.570Z,3.00
2019-01-09T06:55:43.963Z,2.90
2019-01-09T06:58:11.280Z,3.00
2019-01-09T07:00:38.499Z,3.10
2019-01-09T07:03:05.770Z,3.00
2019-01-09T07:05:32.998Z,3.10
2019-01-09T07:08:00.207Z,3.20
2019-01-09T07:10:27.439Z,3.20
2019-01-09T07:12:54.651Z,3.20
2019-01-09T07:15:21.879Z,3.10
2019-01-09T07:17:49.110Z,3.10
2019-01-09T07:20:16.337Z,3.10
2019-01-09T07:22:43.563Z,3.00
2019-01-09T07:25:10.886Z,3.10
2019-01-09T07:27:38.135Z,3.20
2019-01-09T07:30:06.122Z,3.20
2019-01-09T07:32:33.346Z,3.30
2019-01-09T07:35:00.600Z,3.10
2019-01-09T07:37:27.855Z,3.30
2019-01-09T07:39:55.284Z,3.30
2019-01-09T07:42:22.846Z,3.20
2019-01-09T07:44:50.403Z,3.20
2019-01-09T07:47:17.915Z,3.30
2019-01-09T07:49:47.863Z,3.30
2019-01-09T07:52:15.751Z,3.30
2019-01-09T07:54:49.033Z,3.40
2019-01-09T07:57:16.484Z,3.30
2019-01-09T07:59:45.626Z,3.50
2019-01-09T08:02:18.304Z,3.50
2019-01-09T08:04:45.951Z,3.40
2019-01-09T08:07:13.459Z,3.50
2019-01-09T08:09:40.909Z,3.30
2019-01-09T08:12:08.421Z,3.50
2019-01-09T08:14:35.766Z,3.50
2019-01-09T08:17:03.142Z,3.40
2019-01-09T08:19:30.741Z,3.60
2019-01-09T08:21:58.189Z,3.60
2019-01-09T08:24:25.551Z,3.60
2019-01-09T08:26:52.979Z,3.70
2019-01-09T08:29:20.390Z,3.70
2019-01-09T08:31:47.945Z,3.70
2019-01-09T08:34:16.015Z,3.70
2019-01-09T08:36:43.482Z,3.80
2019-01-09T08:39:11.069Z,3.70
2019-01-09T08:41:38.636Z,3.80
2019-01-09T08:44:06.071Z,3.70
2019-01-09T08:46:33.454Z,3.70
2019-01-09T08:49:00.862Z,3.80
2019-01-09T08:51:28.428Z,3.80
2019-01-09T08:53:55.891Z,3.80
2019-01-09T08:56:23.364Z,3.80
2019-01-09T08:58:50.663Z,3.70
2019-01-09T09:01:18.298Z,3.70
2019-01-09T09:03:45.692Z,3.70
2019-01-09T09:06:13.107Z,3.80
2019-01-09T09:08:41.311Z,3.80
2019-01-09T09:11:08.808Z,3.80
2019-01-09T09:13:39.601Z,3.90
2019-01-09T09:16:10.329Z,4.00
2019-01-09T09:18:37.824Z,4.10
2019-01-09T09:21:05.216Z,4.20
2019-01-09T09:23:32.807Z,4.60
2019-01-09T09:26:00.299Z,4.60
2019-01-09T09:28:27.730Z,4.70
2019-01-09T09:30:55.193Z,4.90
2019-01-09T09:33:23.931Z,4.90
2019-01-09T09:35:51.451Z,4.90
2019-01-09T09:38:20.659Z,4.90
2019-01-09T09:41:06.033Z,4.70
2019-01-09T09:43:35.933Z,4.70
2019-01-09T09:46:03.596Z,4.70
2019-01-09T09:48:31.140Z,4.70
2019-01-09T09:50:58.597Z,4.80
2019-01-09T09:53:26.329Z,4.90
2019-01-09T09:55:54.096Z,4.70
2019-01-09T09:58:25.023Z,4.70
2019-01-09T10:00:52.614Z,4.80
2019-01-09T10:03:19.995Z,4.90
2019-01-09T10:05:47.504Z,4.90
2019-01-09T10:08:14.824Z,5.00
2019-01-09T10:10:42.420Z,4.90
2019-01-09T10:13:09.699Z,4.80
2019-01-09T10:15:37.581Z,4.80
2019-01-09T10:18:06.487Z,4.80
2019-01-09T10:20:34.124Z,5.10
2019-01-09T10:23:01.931Z,5.50
2019-01-09T10:25:30.838Z,5.90
2019-01-09T10:27:58.264Z,6.10
2019-01-09T10:30:25.953Z,6.40
2019-01-09T10:32:53.537Z,6.20
2019-01-09T10:35:20.973Z,6.20
2019-01-09T10:37:48.625Z,6.20
2019-01-09T10:40:17.192Z,6.40
2019-01-09T10:42:44.544Z,6.80
2019-01-09T10:45:14.105Z,7.30
2019-01-09T10:47:41.473Z,9.00
2019-01-09T10:50:09.663Z,9.70
2019-01-09T10:52:37.670Z,8.60
2019-01-09T10:55:05.567Z,7.80
2019-01-09T10:57:32.935Z,7.40
2019-01-09T11:00:05.963Z,6.60
2019-01-09T11:02:33.578Z,6.30
2019-01-09T11:05:00.940Z,5.90
2019-01-09T11:07:28.266Z,5.70
2019-01-09T11:10:34.922Z,5.60
2019-01-09T11:13:19.361Z,5.60
2019-01-09T11:16:09.005Z,5.40
2019-01-09T11:19:02.165Z,5.40
2019-01-09T11:21:30.344Z,5.40
2019-01-09T11:24:05.074Z,5.70
2019-01-09T11:26:34.945Z,5.80
2019-01-09T11:29:02.459Z,6.10
2019-01-09T11:31:33.964Z,6.30
2019-01-09T11:34:03.673Z,6.80
2019-01-09T11:36:31.243Z,7.50
2019-01-09T11:38:59.025Z,7.60
2019-01-09T11:41:29.100Z,7.30
2019-01-09T11:43:56.503Z,7.60
2019-01-09T11:46:23.919Z,9.30
2019-01-09T11:48:51.521Z,11.10
2019-01-09T11:51:22.379Z,11.70
2019-01-09T11:53:51.207Z,11.40
2019-01-09T11:56:18.461Z,11.50
2019-01-09T11:58:45.701Z,11.20
2019-01-09T12:01:13.453Z,11.30
2019-01-09T12:03:40.845Z,10.60
2019-01-09T12:06:08.338Z,10.00
2019-01-09T12:08:37.032Z,9.00
2019-01-09T12:11:04.450Z,8.60
2019-01-09T12:13:32.162Z,8.00
2019-01-09T12:16:07.964Z,7.30
2019-01-09T12:18:29.711Z,7.10
2019-01-09T12:20:57.067Z,6.80
2019-01-09T12:23:24.314Z,6.40
2019-01-09T12:25:52.074Z,6.00
2019-01-09T12:28:19.396Z,5.70
2019-01-09T12:30:46.679Z,5.50
2019-01-09T12:33:14.815Z,5.40
2019-01-09T12:35:42.037Z,5.40
2019-01-09T12:38:09.299Z,5.50
2019-01-09T12:40:36.556Z,5.60
2019-01-09T12:43:03.780Z,5.60
2019-01-09T12:45:31.158Z,5.50
2019-01-09T12:47:58.402Z,5.50
2019-01-09T12:50:26.325Z,5.40
2019-01-09T12:52:53.577Z,5.40
2019-01-09T12:55:23.071Z,5.50
2019-01-09T12:57:51.252Z,5.70
2019-01-09T13:00:21.650Z,5.70
2019-01-09T13:02:48.968Z,5.60
2019-01-09T13:05:16.247Z,5.60
2019-01-09T13:07:43.502Z,5.40
2019-01-09T13:10:10.905Z,5.30
2019-01-09T13:12:38.220Z,5.40
2019-01-09T13:15:06.111Z,5.40
2019-01-09T13:17:33.355Z,5.50
2019-01-09T13:20:00.852Z,5.40
2019-01-09T13:22:28.167Z,5.30
2019-01-09T13:24:55.483Z,5.30
2019-01-09T13:27:22.734Z,5.20
2019-01-09T13:29:49.977Z,5.20
2019-01-09T13:32:17.226Z,5.00
2019-01-09T13:34:44.475Z,5.10
2019-01-09T13:37:11.727Z,5.00
2019-01-09T13:39:38.951Z,4.80
2019-01-09T13:42:06.200Z,5.00
2019-01-09T13:44:33.470Z,4.90
2019-01-09T13:47:00.698Z,4.80
2019-01-09T13:49:27.946Z,4.70
2019-01-09T13:51:55.199Z,4.60
2019-01-09T13:54:23.344Z,4.80
2019-01-09T13:56:50.635Z,4.70
2019-01-09T13:59:17.881Z,4.80
2019-01-09T14:01:45.127Z,4.60
2019-01-09T14:04:12.377Z,4.80
2019-01-09T14:06:39.920Z,4.80
2019-01-09T14:09:08.503Z,4.80
2019-01-09T14:11:35.780Z,4.80
2019-01-09T14:14:03.115Z,4.70
2019-01-09T14:16:30.344Z,4.80
2019-01-09T14:18:57.649Z,4.70
2019-01-09T14:21:24.884Z,4.60
2019-01-09T14:23:52.242Z,4.60
2019-01-09T14:26:19.483Z,4.60
2019-01-09T14:28:47.222Z,4.50
2019-01-09T14:31:14.565Z,4.50
2019-01-09T14:33:41.832Z,4.50
2019-01-09T14:36:09.163Z,4.20
2019-01-09T14:38:36.375Z,4.30
2019-01-09T14:41:03.671Z,4.20
2019-01-09T14:43:30.902Z,4.30
2019-01-09T14:45:58.176Z,4.30
2019-01-09T14:48:25.411Z,4.20
2019-01-09T14:50:52.659Z,4.20
2019-01-09T14:53:19.991Z,4.30
2019-01-09T14:55:47.247Z,4.20
2019-01-09T14:58:14.491Z,4.30
2019-01-09T15:00:41.707Z,4.20
2019-01-09T15:03:08.967Z,4.20
2019-01-09T15:05:36.237Z,4.10
2019-01-09T15:08:03.571Z,4.30
2019-01-09T15:10:31.700Z,4.20
2019-01-09T15:12:59.131Z,4.10
2019-01-09T15:15:26.594Z,4.10
2019-01-09T15:17:53.842Z,4.20
2019-01-09T15:20:21.175Z,4.10
2019-01-09T15:22:48.440Z,4.20
2019-01-09T15:25:15.791Z,4.20
2019-01-09T15:27:43.022Z,4.20
2019-01-09T15:30:14.159Z,4.20
2019-01-09T15:32:42.994Z,4.10
2019-01-09T15:35:10.628Z,4.10
2019-01-09T15:37:37.831Z,4.10
2019-01-09T15:40:08.626Z,4.10
2019-01-09T15:42:35.882Z,4.10
2019-01-09T15:45:04.368Z,4.00
2019-01-09T15:47:31.599Z,3.90
2019-01-09T15:49:58.831Z,3.90
2019-01-09T15:52:26.083Z,3.90
2019-01-09T15:54:53.323Z,4.10
2019-01-09T15:57:20.546Z,4.10
2019-01-09T15:59:47.792Z,4.10
2019-01-09T16:02:15.027Z,3.90
2019-01-09T16:04:42.251Z,4.10
2019-01-09T16:07:09.604Z,4.10
2019-01-09T16:09:36.839Z,4.00
2019-01-09T16:12:06.547Z,4.00
2019-01-09T16:14:35.175Z,4.00
2019-01-09T16:17:02.421Z,4.00
2019-01-09T16:19:29.724Z,4.00
2019-01-09T16:21:56.965Z,4.00
2019-01-09T16:24:24.224Z,3.90
2019-01-09T16:26:51.491Z,4.00
2019-01-09T16:29:20.181Z,4.00
2019-01-09T16:31:47.518Z,3.90
2019-01-09T16:34:14.747Z,4.10
2019-01-09T16:36:41.979Z,4.00
2019-01-09T16:39:09.568Z,3.90
2019-01-09T16:41:36.827Z,3.90
2019-01-09T16:44:04.042Z,3.70
2019-01-09T16:46:31.515Z,3.80
2019-01-09T16:48:58.966Z,4.00
2019-01-09T16:51:26.911Z,3.80
2019-01-09T16:53:54.393Z,3.90
2019-01-09T16:56:21.880Z,3.80
2019-01-09T16:58:52.002Z,3.90
2019-01-09T17:01:19.539Z,3.90
2019-01-09T17:03:47.079Z,4.00
2019-01-09T17:06:14.523Z,3.90
2019-01-09T17:08:42.629Z,3.80
2019-01-09T17:11:10.477Z,3.70
2019-01-09T17:13:37.918Z,3.80
2019-01-09T17:16:05.509Z,3.70
2019-01-09T17:18:33.022Z,3.50
2019-01-09T17:21:00.396Z,3.60
2019-01-09T17:23:27.772Z,3.60
2019-01-09T17:25:55.491Z,3.50
2019-01-09T17:28:23.045Z,3.50
2019-01-09T17:30:50.497Z,3.50
2019-01-09T17:33:17.952Z,3.30
2019-01-09T17:35:45.484Z,3.40
2019-01-09T17:38:16.106Z,3.40
2019-01-09T17:40:43.644Z,3.30
2019-01-09T17:43:11.128Z,3.30
2019-01-09T17:45:38.618Z,3.30
2019-01-09T17:48:06.093Z,3.30
2019-01-09T17:50:36.821Z,3.30
2019-01-09T17:53:04.707Z,3.30
2019-01-09T17:55:32.333Z,3.30
2019-01-09T17:57:59.796Z,3.10
2019-01-09T18:00:30.302Z,3.20
2019-01-09T18:02:58.071Z,3.10
2019-01-09T18:05:25.728Z,3.20
2019-01-09T18:07:53.776Z,3.10
2019-01-09T18:10:21.660Z,3.20
2019-01-09T18:12:49.074Z,3.20
2019-01-09T18:15:18.930Z,3.10
2019-01-09T18:17:46.465Z,3.20
2019-01-09T18:20:14.736Z,3.20
2019-01-09T18:22:42.190Z,3.20
2019-01-09T18:25:12.792Z,3.20
2019-01-09T18:27:40.565Z,3.10
2019-01-09T18:30:17.818Z,3.10
2019-01-09T18:32:55.575Z,2.90
2019-01-09T18:36:03.263Z,2.90
2019-01-09T18:38:42.252Z,2.80
2019-01-09T18:41:34.192Z,2.90
2019-01-09T18:44:33.040Z,2.90
2019-01-09T18:47:45.818Z,2.90
2019-01-09T18:50:52.827Z,2.90
2019-01-09T18:53:38.056Z,2.90
2019-01-09T18:56:07.143Z,2.80
2019-01-09T18:58:34.620Z,2.70
2019-01-09T19:01:02.025Z,2.80
2019-01-09T19:03:29.512Z,2.90
2019-01-09T19:05:57.308Z,2.90
2019-01-09T19:08:24.780Z,2.80
2019-01-09T19:10:52.284Z,2.80
2019-01-09T19:13:19.779Z,2.90
2019-01-09T19:15:47.251Z,2.90
2019-01-09T19:18:14.669Z,3.00
2019-01-09T19:20:42.090Z,3.00
2019-01-09T19:23:09.861Z,3.10
2019-01-09T19:25:38.153Z,3.10
2019-01-09T19:28:05.553Z,3.20
2019-01-09T19:30:33.114Z,3.10
2019-01-09T19:33:00.896Z,3.10
2019-01-09T19:35:28.314Z,2.90
2019-01-09T19:37:55.791Z,3.20
2019-01-09T19:40:23.548Z,3.10
2019-01-09T19:42:50.930Z,3.00
2019-01-09T19:45:18.900Z,3.20
2019-01-09T19:47:46.441Z,3.10
2019-01-09T19:50:18.059Z,3.10
2019-01-09T19:52:47.322Z,3.00
2019-01-09T19:55:14.697Z,3.10
2019-01-09T19:57:42.307Z,3.30
2019-01-09T20:00:14.343Z,3.20
2019-01-09T20:02:41.808Z,3.20
2019-01-09T20:05:09.325Z,3.20
2019-01-09T20:07:37.010Z,3.10
2019-01-09T20:10:06.221Z,3.20
2019-01-09T20:12:33.817Z,3.20
2019-01-09T20:15:01.732Z,3.20
2019-01-09T20:17:31.821Z,3.30
2019-01-09T20:19:59.373Z,3.20
2019-01-09T20:22:26.977Z,3.30
2019-01-09T20:24:54.627Z,3.20
2019-01-09T20:27:22.232Z,3.10
2019-01-09T20:29:49.825Z,3.20
2019-01-09T20:32:20.004Z,3.20
2019-01-09T20:34:47.806Z,3.20
2019-01-09T20:37:15.538Z,3.10
2019-01-09T20:39:42.898Z,3.20
2019-01-09T20:44:57.767Z,3.10
2019-01-09T20:47:25.087Z,3.20
2019-01-09T20:49:52.376Z,3.20
2019-01-09T20:52:19.923Z,3.00
2019-01-09T20:55:01.531Z,3.10
2019-01-09T20:57:29.066Z,2.90
2019-01-09T20:59:56.478Z,3.00
2019-01-09T21:02:23.926Z,3.00
2019-01-09T21:04:51.306Z,3.00
2019-01-09T21:07:18.702Z,3.00
2019-01-09T21:10:06.294Z,2.80
2019-01-09T21:12:33.984Z,2.90
2019-01-09T21:15:01.467Z,2.90
2019-01-09T21:17:29.380Z,2.90
2019-01-09T21:19:56.726Z,2.90
2019-01-09T21:22:26.101Z,2.80
2019-01-09T21:24:54.661Z,2.90
2019-01-09T21:27:22.143Z,2.70
2019-01-09T21:32:37.009Z,2.80
2019-01-09T21:35:05.202Z,2.80
2019-01-09T21:37:32.587Z,2.80
2019-01-09T21:40:00.817Z,2.80
2019-01-09T21:42:28.279Z,2.70
2019-01-09T21:44:55.619Z,2.60
2019-01-09T21:47:22.861Z,2.70
2019-01-09T21:49:50.177Z,2.80
2019-01-09T21:52:17.555Z,2.70
2019-01-09T21:54:44.863Z,2.70
2019-01-09T21:57:12.182Z,2.80
2019-01-09T21:59:39.544Z,2.80
2019-01-09T22:02:06.808Z,2.90
2019-01-09T22:04:34.083Z,2.80
2019-01-09T22:07:03.150Z,2.90
2019-01-09T22:09:30.523Z,2.70
2019-01-09T22:12:02.420Z,2.90
2019-01-09T22:14:28.100Z,2.80
2019-01-09T22:16:55.491Z,2.80
2019-01-09T22:19:22.775Z,2.80
2019-01-09T22:21:50.163Z,2.90
2019-01-09T22:24:17.467Z,2.90
2019-01-09T22:26:47.249Z,2.90
2019-01-09T22:29:14.508Z,3.00
2019-01-09T22:31:41.903Z,3.00
2019-01-09T22:34:09.126Z,3.10
2019-01-09T22:36:36.462Z,2.90
2019-01-09T22:39:05.530Z,3.00
2019-01-09T22:41:32.836Z,2.80
2019-01-09T22:44:00.102Z,2.90
2019-01-09T22:46:27.476Z,3.00
2019-01-09T22:48:54.751Z,2.90
2019-01-09T22:51:22.009Z,2.80
2019-01-09T22:53:49.261Z,3.00
2019-01-09T22:56:16.514Z,3.00
2019-01-09T22:58:43.862Z,2.90
2019-01-09T23:01:30.284Z,2.90
2019-01-09T23:03:57.527Z,3.00
2019-01-09T23:06:24.872Z,3.00
2019-01-09T23:08:52.503Z,3.00
2019-01-09T23:11:19.724Z,3.00
2019-01-09T23:13:46.992Z,3.00
2019-01-09T23:16:14.351Z,2.90
2019-01-09T23:18:41.662Z,3.10
2019-01-09T23:21:08.912Z,3.00
2019-01-09T23:23:36.155Z,3.00
2019-01-09T23:26:03.912Z,3.10
2019-01-09T23:28:31.275Z,3.00
2019-01-09T23:30:58.510Z,2.90
2019-01-09T23:33:25.783Z,3.00
2019-01-09T23:35:54.255Z,3.00
2019-01-09T23:38:21.532Z,3.00
2019-01-09T23:40:48.775Z,3.10
2019-01-09T23:43:16.009Z,3.00
2019-01-09T23:45:43.426Z,3.10
2019-01-09T23:48:10.799Z,3.10
2019-01-09T23:50:38.104Z,3.10
2019-01-09T23:53:05.488Z,3.10
2019-01-09T23:55:32.777Z,3.00
2019-01-09T23:58:00.024Z,3.00
